createdAt,value
2022-11-28T00:01:32.403Z,3.71
2022-11-28T00:04:00.257Z,3.74
2022-11-28T00:06:28.796Z,3.76
2022-11-28T00:08:59.310Z,3.71
2022-11-28T00:11:27.793Z,3.66
2022-11-28T00:13:56.314Z,3.77
2022-11-28T00:16:25.206Z,3.68
2022-11-28T00:18:55.945Z,3.70
2022-11-28T00:21:24.899Z,3.74
2022-11-28T00:23:53.073Z,3.77
2022-11-28T00:26:25.410Z,3.72
2022-11-28T00:28:53.380Z,3.70
2022-11-28T00:31:22.904Z,3.67
2022-11-28T00:33:50.824Z,3.74
2022-11-28T00:36:20.783Z,3.69
2022-11-28T00:38:48.806Z,3.67
2022-11-28T00:41:18.670Z,3.61
2022-11-28T00:43:47.852Z,3.70
2022-11-28T00:46:16.609Z,3.72
2022-11-28T00:48:44.816Z,3.76
2022-11-28T00:51:14.370Z,3.74
2022-11-28T00:53:44.912Z,3.73
2022-11-28T00:56:14.717Z,3.68
2022-11-28T00:58:43.478Z,3.74
2022-11-28T01:01:13.045Z,3.65
2022-11-28T01:03:41.821Z,3.78
2022-11-28T01:06:10.898Z,3.78
2022-11-28T01:08:39.159Z,3.76
2022-11-28T01:11:13.954Z,3.79
2022-11-28T01:13:42.234Z,3.84
2022-11-28T01:16:10.581Z,3.84
2022-11-28T01:18:39.114Z,3.87
2022-11-28T01:21:07.976Z,3.91
2022-11-28T01:23:36.142Z,3.86
2022-11-28T01:26:05.251Z,3.78
2022-11-28T01:28:34.827Z,3.82
2022-11-28T01:31:06.453Z,3.87
2022-11-28T01:33:34.388Z,3.87
2022-11-28T01:36:02.766Z,3.88
2022-11-28T01:38:31.314Z,3.85
2022-11-28T01:40:59.570Z,3.87
2022-11-28T01:43:27.461Z,3.85
2022-11-28T01:45:57.180Z,3.85
2022-11-28T01:48:29.161Z,3.98
2022-11-28T01:50:59.801Z,3.90
2022-11-28T01:53:30.197Z,3.86
2022-11-28T01:56:03.224Z,3.84
2022-11-28T01:58:33.752Z,3.85
2022-11-28T02:01:03.728Z,3.86
2022-11-28T02:03:39.372Z,3.66
2022-11-28T02:06:07.611Z,3.64
2022-11-28T02:08:37.095Z,3.68
2022-11-28T02:11:22.553Z,3.72
2022-11-28T02:14:00.979Z,3.65
2022-11-28T02:16:44.377Z,3.60
2022-11-28T02:19:44.365Z,3.55
2022-11-28T02:22:18.172Z,3.52
2022-11-28T02:25:05.068Z,3.53
2022-11-28T02:28:12.063Z,3.59
2022-11-28T02:30:54.010Z,3.54
2022-11-28T02:33:28.552Z,3.48
2022-11-28T02:36:05.757Z,3.44
2022-11-28T02:38:47.254Z,3.49
2022-11-28T02:41:25.623Z,3.47
2022-11-28T02:44:01.477Z,3.46
2022-11-28T02:46:38.865Z,3.49
2022-11-28T02:49:13.727Z,3.52
2022-11-28T02:51:44.713Z,3.56
2022-11-28T02:54:14.612Z,3.43
2022-11-28T02:56:49.326Z,3.41
2022-11-28T02:59:32.348Z,3.45
2022-11-28T03:02:01.985Z,3.46
2022-11-28T03:04:43.108Z,3.47
2022-11-28T03:07:19.844Z,3.50
2022-11-28T03:10:10.738Z,3.42
2022-11-28T03:12:52.035Z,3.40
2022-11-28T03:15:25.082Z,3.34
2022-11-28T03:18:01.649Z,3.38
2022-11-28T03:20:43.947Z,3.32
2022-11-28T03:23:17.340Z,3.34
2022-11-28T03:25:57.249Z,3.31
2022-11-28T03:28:30.932Z,3.24
2022-11-28T03:31:02.196Z,3.38
2022-11-28T03:33:34.518Z,3.34
2022-11-28T03:36:07.514Z,3.28
2022-11-28T03:38:38.365Z,3.28
2022-11-28T03:41:11.869Z,3.27
2022-11-28T03:43:44.063Z,3.27
2022-11-28T03:46:17.030Z,3.28
2022-11-28T03:48:49.091Z,3.23
2022-11-28T03:51:21.985Z,3.29
2022-11-28T03:53:55.257Z,3.31
2022-11-28T03:56:27.610Z,3.21
2022-11-28T03:59:01.237Z,3.20
2022-11-28T04:01:34.405Z,3.22
2022-11-28T04:04:15.487Z,3.21
2022-11-28T04:06:55.347Z,3.27
2022-11-28T04:09:36.482Z,3.21
2022-11-28T04:12:10.948Z,3.23
2022-11-28T04:14:42.934Z,3.26
2022-11-28T04:17:17.915Z,3.36
2022-11-28T04:19:51.971Z,3.37
2022-11-28T04:22:25.684Z,3.30
2022-11-28T04:24:57.140Z,3.25
2022-11-28T04:27:30.107Z,3.20
2022-11-28T04:30:02.088Z,3.26
2022-11-28T04:32:32.877Z,3.36
2022-11-28T04:35:06.385Z,3.34
2022-11-28T04:37:38.457Z,3.25
2022-11-28T04:40:09.764Z,3.25
2022-11-28T04:42:42.922Z,3.19
2022-11-28T04:45:15.673Z,3.32
2022-11-28T04:47:44.391Z,3.38
2022-11-28T04:50:13.653Z,3.38
2022-11-28T04:52:47.962Z,3.29
2022-11-28T04:55:28.064Z,3.26
2022-11-28T04:58:01.181Z,3.28
2022-11-28T05:00:29.316Z,3.20
2022-11-28T05:02:58.076Z,3.27
2022-11-28T05:05:28.472Z,3.21
2022-11-28T05:07:59.059Z,3.18
2022-11-28T05:10:27.034Z,3.15
2022-11-28T05:12:54.955Z,3.21
2022-11-28T05:15:22.810Z,3.16
2022-11-28T05:17:50.671Z,3.08
2022-11-28T05:20:18.563Z,3.10
2022-11-28T05:22:46.433Z,3.15
2022-11-28T05:25:15.920Z,3.14
2022-11-28T05:27:43.818Z,3.08
2022-11-28T05:30:13.218Z,3.13
2022-11-28T05:32:41.296Z,3.08
2022-11-28T05:35:10.039Z,3.15
2022-11-28T05:37:38.801Z,3.11
2022-11-28T05:40:08.305Z,3.13
2022-11-28T05:42:37.880Z,3.16
2022-11-28T05:45:06.271Z,3.24
2022-11-28T05:47:34.577Z,3.19
2022-11-28T05:50:02.662Z,3.15
2022-11-28T05:52:32.313Z,3.17
2022-11-28T05:55:01.694Z,3.02
2022-11-28T05:57:32.029Z,3.08
2022-11-28T06:00:01.313Z,3.04
2022-11-28T06:02:29.485Z,3.05
2022-11-28T06:04:57.404Z,2.96
2022-11-28T06:07:25.646Z,3.01
2022-11-28T06:09:53.497Z,3.07
2022-11-28T06:12:21.345Z,3.06
2022-11-28T06:14:49.244Z,3.05
2022-11-28T06:17:18.576Z,3.00
2022-11-28T06:19:46.464Z,3.02
2022-11-28T06:22:14.592Z,2.97
2022-11-28T06:24:42.879Z,2.97
2022-11-28T06:27:10.700Z,2.96
2022-11-28T06:29:38.592Z,2.98
2022-11-28T06:32:06.775Z,2.99
2022-11-28T06:34:36.148Z,3.04
2022-11-28T06:37:04.110Z,2.97
2022-11-28T06:39:32.094Z,2.95
2022-11-28T06:41:59.949Z,3.01
2022-11-28T06:44:27.841Z,3.12
2022-11-28T06:46:55.922Z,3.11
2022-11-28T06:49:24.073Z,3.11
2022-11-28T06:51:53.338Z,3.09
2022-11-28T06:54:21.460Z,3.04
2022-11-28T06:56:49.512Z,3.08
2022-11-28T06:59:17.390Z,3.06
2022-11-28T07:01:45.425Z,3.11
2022-11-28T07:04:13.653Z,3.04
2022-11-28T07:06:41.668Z,3.03
2022-11-28T07:09:11.391Z,3.02
2022-11-28T07:11:43.010Z,3.04
2022-11-28T07:14:11.548Z,3.16
2022-11-28T07:16:39.589Z,3.12
2022-11-28T07:19:07.701Z,3.12
2022-11-28T07:21:35.605Z,3.13
2022-11-28T07:24:03.497Z,3.22
2022-11-28T07:26:33.977Z,3.20
2022-11-28T07:29:02.078Z,3.24
2022-11-28T07:31:32.602Z,3.21
2022-11-28T07:34:03.608Z,3.22
2022-11-28T07:36:32.439Z,3.26
2022-11-28T07:39:02.439Z,3.28
2022-11-28T07:41:32.112Z,3.18
2022-11-28T07:44:02.803Z,3.23
2022-11-28T07:46:32.628Z,3.27
2022-11-28T07:49:00.788Z,3.29
2022-11-28T07:51:30.989Z,3.51
2022-11-28T07:53:59.234Z,3.36
2022-11-28T07:56:44.353Z,3.35
2022-11-28T07:59:18.934Z,3.43
2022-11-28T08:01:46.866Z,3.44
2022-11-28T08:04:14.798Z,3.33
2022-11-28T08:06:44.391Z,3.43
2022-11-28T08:09:12.972Z,3.42
2022-11-28T08:11:43.076Z,3.46
2022-11-28T08:14:11.119Z,3.55
2022-11-28T08:16:45.066Z,3.42
2022-11-28T08:19:13.249Z,3.44
2022-11-28T08:21:41.144Z,3.46
2022-11-28T08:24:09.452Z,3.48
2022-11-28T08:26:37.803Z,3.45
2022-11-28T08:29:05.958Z,3.52
2022-11-28T08:31:36.092Z,3.46
2022-11-28T08:34:07.085Z,3.56
2022-11-28T08:36:35.225Z,3.59
2022-11-28T08:41:52.168Z,3.58
2022-11-28T08:44:20.028Z,3.72
2022-11-28T08:46:47.916Z,3.68
2022-11-28T08:49:17.186Z,3.51
2022-11-28T08:51:45.188Z,3.62
2022-11-28T08:54:13.437Z,3.80
2022-11-28T08:56:41.679Z,3.78
2022-11-28T08:59:10.568Z,3.86
2022-11-28T09:01:39.641Z,3.86
2022-11-28T09:04:07.724Z,3.85
2022-11-28T09:06:39.958Z,3.89
2022-11-28T09:09:09.159Z,4.01
2022-11-28T09:11:37.228Z,3.97
2022-11-28T09:14:05.405Z,4.10
2022-11-28T09:16:33.404Z,4.05
2022-11-28T09:19:01.407Z,4.07
2022-11-28T09:21:29.281Z,4.07
2022-11-28T09:23:58.558Z,3.85
2022-11-28T09:26:26.939Z,3.92
2022-11-28T09:28:55.157Z,4.12
2022-11-28T09:31:23.454Z,4.32
2022-11-28T09:33:51.518Z,4.36
2022-11-28T09:36:21.201Z,4.13
2022-11-28T09:38:49.715Z,4.05
2022-11-28T09:41:41.313Z,4.23
2022-11-28T09:44:19.133Z,4.33
2022-11-28T09:46:49.403Z,4.17
2022-11-28T09:49:41.089Z,4.29
2022-11-28T09:52:22.937Z,4.55
2022-11-28T09:54:58.633Z,4.68
2022-11-28T09:57:35.554Z,4.53
2022-11-28T10:00:05.328Z,4.59
2022-11-28T10:02:38.916Z,4.77
2022-11-28T10:05:16.580Z,4.72
2022-11-28T10:07:56.597Z,4.83
2022-11-28T10:10:34.137Z,4.88
2022-11-28T10:13:13.731Z,4.85
2022-11-28T10:15:49.415Z,4.58
2022-11-28T10:18:35.843Z,4.71
2022-11-28T10:21:10.737Z,4.89
2022-11-28T10:23:42.329Z,4.95
2022-11-28T10:26:18.028Z,4.80
2022-11-28T10:28:51.458Z,5.14
2022-11-28T10:31:28.425Z,4.94
2022-11-28T10:34:00.259Z,5.24
2022-11-28T10:36:32.051Z,5.01
2022-11-28T10:39:06.185Z,5.12
2022-11-28T10:41:42.077Z,5.12
2022-11-28T10:44:23.815Z,5.21
2022-11-28T10:47:00.191Z,5.27
2022-11-28T10:49:41.220Z,5.63
2022-11-28T10:52:16.370Z,5.29
2022-11-28T10:55:06.121Z,5.63
2022-11-28T10:57:40.898Z,5.32
2022-11-28T11:00:14.414Z,5.97
2022-11-28T11:02:46.563Z,5.63
2022-11-28T11:05:16.756Z,5.78
2022-11-28T11:07:50.432Z,5.83
2022-11-28T11:10:20.514Z,5.65
2022-11-28T11:12:51.348Z,5.84
2022-11-28T11:15:24.740Z,5.74
2022-11-28T11:17:52.782Z,5.45
2022-11-28T11:20:30.482Z,5.39
2022-11-28T11:22:59.415Z,5.57
2022-11-28T11:25:29.279Z,5.69
2022-11-28T11:28:01.035Z,5.84
2022-11-28T11:30:32.114Z,5.92
2022-11-28T11:33:01.638Z,5.85
2022-11-28T11:35:35.662Z,5.72
2022-11-28T11:38:18.320Z,5.72
2022-11-28T11:40:46.610Z,5.56
2022-11-28T11:43:28.767Z,5.72
2022-11-28T11:46:09.355Z,5.61
2022-11-28T11:48:40.138Z,5.73
2022-11-28T11:51:08.822Z,5.57
2022-11-28T11:53:36.731Z,5.47
2022-11-28T11:56:05.473Z,5.51
2022-11-28T11:58:41.802Z,5.75
2022-11-28T12:01:13.024Z,5.66
2022-11-28T12:03:42.944Z,5.68
2022-11-28T12:06:16.947Z,5.74
2022-11-28T12:08:51.402Z,5.81
2022-11-28T12:11:25.286Z,5.58
2022-11-28T12:13:54.010Z,5.66
2022-11-28T12:16:41.230Z,5.81
2022-11-28T12:19:21.471Z,5.88
2022-11-28T12:22:03.858Z,5.69
2022-11-28T12:24:41.587Z,5.53
2022-11-28T12:27:26.409Z,5.88
2022-11-28T12:30:06.599Z,5.90
2022-11-28T12:32:48.979Z,6.11
2022-11-28T12:35:28.728Z,5.73
2022-11-28T12:38:12.071Z,5.85
2022-11-28T12:40:51.130Z,6.00
2022-11-28T12:43:30.051Z,6.06
2022-11-28T12:46:05.585Z,5.98
2022-11-28T12:48:52.995Z,5.92
2022-11-28T12:51:32.463Z,6.01
2022-11-28T12:54:14.427Z,5.86
2022-11-28T12:56:49.776Z,5.71
2022-11-28T12:59:25.925Z,5.96
2022-11-28T13:02:08.220Z,5.97
2022-11-28T13:05:10.752Z,5.87
2022-11-28T13:07:48.483Z,5.68
2022-11-28T13:10:25.873Z,6.04
2022-11-28T13:13:00.507Z,6.06
2022-11-28T13:15:45.751Z,5.79
2022-11-28T13:18:30.308Z,5.85
2022-11-28T13:21:08.025Z,6.07
2022-11-28T13:23:46.425Z,6.12
2022-11-28T13:26:24.831Z,5.95
2022-11-28T13:29:00.428Z,5.94
2022-11-28T13:31:32.865Z,5.84
2022-11-28T13:34:01.845Z,5.96
2022-11-28T13:39:36.995Z,6.04
2022-11-28T13:42:59.037Z,6.03
2022-11-28T13:45:26.707Z,5.72
2022-11-28T13:48:00.949Z,5.83
2022-11-28T13:50:40.918Z,6.04
2022-11-28T13:53:29.955Z,6.08
2022-11-28T13:56:28.142Z,6.05
2022-11-28T13:59:00.764Z,5.89
2022-11-28T14:01:31.296Z,5.88
2022-11-28T14:04:12.376Z,5.87
2022-11-28T14:06:46.024Z,5.89
2022-11-28T14:09:29.755Z,5.87
2022-11-28T14:12:20.450Z,5.86
2022-11-28T14:15:08.916Z,5.80
2022-11-28T14:18:31.901Z,5.76
2022-11-28T14:21:04.484Z,5.73
2022-11-28T14:23:43.169Z,5.90
2022-11-28T14:26:20.772Z,5.74
2022-11-28T14:28:51.896Z,5.70
2022-11-28T14:31:32.128Z,5.73
2022-11-28T14:34:02.657Z,5.77
2022-11-28T14:36:34.233Z,5.65
2022-11-28T14:39:10.741Z,5.65
2022-11-28T14:42:30.473Z,5.66
2022-11-28T14:45:25.312Z,5.72
2022-11-28T14:48:18.696Z,5.81
2022-11-28T14:50:59.086Z,5.56
2022-11-28T14:53:50.040Z,5.65
2022-11-28T14:56:29.691Z,5.61
2022-11-28T14:59:01.485Z,5.57
2022-11-28T15:01:46.301Z,5.57
2022-11-28T15:04:48.968Z,5.63
2022-11-28T15:07:27.840Z,5.66
2022-11-28T15:10:07.805Z,5.64
2022-11-28T15:12:44.730Z,5.65
2022-11-28T15:15:17.041Z,5.60
2022-11-28T15:17:48.689Z,5.56
2022-11-28T15:20:25.264Z,5.51
2022-11-28T15:22:53.487Z,5.51
2022-11-28T15:25:22.517Z,5.62
2022-11-28T15:27:50.922Z,5.58
2022-11-28T15:30:20.659Z,5.51
2022-11-28T15:32:49.203Z,5.55
2022-11-28T15:35:19.549Z,5.43
2022-11-28T15:37:50.030Z,5.44
2022-11-28T15:40:21.639Z,5.48
2022-11-28T15:42:51.279Z,5.47
2022-11-28T15:45:25.549Z,5.50
2022-11-28T15:47:55.283Z,5.50
2022-11-28T15:50:27.040Z,5.49
2022-11-28T15:52:56.730Z,5.42
2022-11-28T15:55:25.072Z,5.37
2022-11-28T15:57:53.023Z,5.32
2022-11-28T16:00:22.088Z,5.38
2022-11-28T16:02:50.188Z,5.37
2022-11-28T16:05:21.880Z,5.43
2022-11-28T16:07:52.466Z,5.39
2022-11-28T16:10:25.957Z,5.40
2022-11-28T16:12:59.216Z,5.36
2022-11-28T16:15:28.230Z,5.37
2022-11-28T16:17:57.122Z,5.41
2022-11-28T16:20:27.604Z,5.38
2022-11-28T16:23:02.605Z,5.40
2022-11-28T16:25:32.615Z,5.37
2022-11-28T16:28:00.783Z,5.35
2022-11-28T16:30:34.731Z,5.35
2022-11-28T16:33:02.608Z,5.42
2022-11-28T16:35:33.884Z,5.38
2022-11-28T16:38:17.565Z,5.33
2022-11-28T16:40:46.049Z,5.41
2022-11-28T16:43:22.325Z,5.39
2022-11-28T16:45:59.649Z,5.37
2022-11-28T16:48:29.771Z,5.41
2022-11-28T16:51:40.792Z,5.39
2022-11-28T16:54:30.673Z,5.41
2022-11-28T16:57:10.431Z,5.42
2022-11-28T16:59:38.429Z,5.50
2022-11-28T17:02:14.355Z,5.42
2022-11-28T17:04:42.424Z,5.41
2022-11-28T17:07:14.083Z,5.37
2022-11-28T17:09:44.553Z,5.40
2022-11-28T17:12:21.042Z,5.38
2022-11-28T17:14:48.906Z,5.37
2022-11-28T17:17:18.110Z,5.31
2022-11-28T17:19:47.339Z,5.35
2022-11-28T17:22:17.969Z,5.37
2022-11-28T17:24:48.359Z,5.48
2022-11-28T17:27:17.384Z,5.40
2022-11-28T17:29:45.470Z,5.36
2022-11-28T17:32:14.908Z,5.46
2022-11-28T17:34:43.694Z,5.41
2022-11-28T17:37:11.956Z,5.35
2022-11-28T17:39:39.961Z,5.40
2022-11-28T17:42:11.010Z,5.33
2022-11-28T17:44:39.423Z,5.41
2022-11-28T17:47:07.496Z,5.37
2022-11-28T17:49:35.413Z,5.40
2022-11-28T17:52:03.723Z,5.38
2022-11-28T17:54:31.926Z,5.35
2022-11-28T17:57:00.511Z,5.35
2022-11-28T17:59:30.745Z,5.33
2022-11-28T18:01:58.937Z,5.39
2022-11-28T18:04:27.331Z,5.38
2022-11-28T18:06:58.210Z,5.29
2022-11-28T18:09:27.001Z,5.28
2022-11-28T18:11:54.871Z,5.30
2022-11-28T18:14:22.808Z,5.25
2022-11-28T18:16:52.390Z,5.25
2022-11-28T18:19:20.375Z,5.21
2022-11-28T18:21:48.389Z,5.26
2022-11-28T18:24:16.454Z,5.25
2022-11-28T18:26:44.654Z,5.20
2022-11-28T18:29:13.091Z,5.21
2022-11-28T18:31:41.534Z,5.18
2022-11-28T18:34:11.305Z,5.13
2022-11-28T18:36:39.709Z,5.23
2022-11-28T18:39:09.900Z,5.17
2022-11-28T18:41:39.998Z,5.25
2022-11-28T18:44:08.247Z,5.16
2022-11-28T18:46:36.432Z,5.16
2022-11-28T18:49:04.427Z,5.14
2022-11-28T18:51:34.913Z,5.08
2022-11-28T18:54:04.921Z,5.16
2022-11-28T18:56:34.273Z,5.09
2022-11-28T18:59:02.241Z,5.12
2022-11-28T19:01:32.306Z,5.12
2022-11-28T19:04:02.194Z,5.08
2022-11-28T19:06:30.639Z,5.09
2022-11-28T19:09:01.914Z,5.07
2022-11-28T19:11:30.534Z,5.12
2022-11-28T19:13:59.319Z,5.10
2022-11-28T19:16:29.925Z,5.17
2022-11-28T19:18:58.442Z,5.12
2022-11-28T19:21:28.857Z,5.13
2022-11-28T19:23:57.262Z,5.13
2022-11-28T19:26:29.099Z,5.11
2022-11-28T19:28:59.926Z,5.12
2022-11-28T19:31:29.632Z,5.10
2022-11-28T19:34:01.883Z,5.07
2022-11-28T19:36:31.078Z,5.09
2022-11-28T19:38:59.083Z,5.08
2022-11-28T19:41:30.452Z,5.07
2022-11-28T19:43:58.390Z,5.06
2022-11-28T19:46:31.857Z,5.13
2022-11-28T19:49:03.379Z,5.18
2022-11-28T19:51:31.338Z,5.10
2022-11-28T19:54:03.518Z,5.12
2022-11-28T19:56:33.854Z,5.05
2022-11-28T19:59:02.058Z,5.06
2022-11-28T20:01:29.986Z,5.07
2022-11-28T20:03:59.349Z,5.08
2022-11-28T20:06:29.063Z,5.04
2022-11-28T20:09:00.272Z,5.06
2022-11-28T20:11:30.254Z,5.13
2022-11-28T20:14:01.424Z,5.07
2022-11-28T20:16:30.632Z,5.08
2022-11-28T20:19:00.389Z,5.15
2022-11-28T20:21:29.218Z,5.15
2022-11-28T20:24:02.620Z,5.08
2022-11-28T20:26:30.892Z,5.14
2022-11-28T20:29:00.800Z,5.12
2022-11-28T20:31:33.794Z,5.09
2022-11-28T20:34:02.704Z,5.10
2022-11-28T20:36:32.601Z,5.17
2022-11-28T20:39:00.884Z,5.15
2022-11-28T20:41:30.012Z,5.18
2022-11-28T20:44:00.157Z,5.19
2022-11-28T20:46:32.010Z,5.22
2022-11-28T20:49:01.741Z,5.20
2022-11-28T20:51:31.157Z,5.16
2022-11-28T20:54:00.112Z,5.12
2022-11-28T20:56:30.738Z,5.27
2022-11-28T20:59:00.953Z,5.25
2022-11-28T21:01:33.272Z,5.16
2022-11-28T21:04:02.392Z,5.14
2022-11-28T21:06:30.832Z,5.15
2022-11-28T21:08:58.794Z,5.17
2022-11-28T21:14:15.561Z,5.22
2022-11-28T21:16:44.963Z,5.28
2022-11-28T21:19:13.986Z,5.23
2022-11-28T21:21:42.886Z,5.26
2022-11-28T21:24:13.897Z,5.18
2022-11-28T21:26:47.885Z,5.16
2022-11-28T21:29:19.847Z,5.22
2022-11-28T21:31:49.254Z,5.21
2022-11-28T21:34:19.371Z,5.21
2022-11-28T21:36:47.471Z,5.23
2022-11-28T21:39:17.655Z,5.21
2022-11-28T21:41:45.640Z,5.17
2022-11-28T21:44:13.547Z,5.19
2022-11-28T21:46:41.473Z,5.21
2022-11-28T21:49:11.115Z,5.22
2022-11-28T21:51:45.895Z,5.37
2022-11-28T21:54:14.224Z,5.16
2022-11-28T21:56:42.626Z,5.16
2022-11-28T21:59:10.563Z,5.24
2022-11-28T22:01:38.669Z,5.22
2022-11-28T22:04:06.947Z,5.22
2022-11-28T22:06:36.234Z,5.25
2022-11-28T22:09:09.445Z,5.17
2022-11-28T22:11:38.516Z,5.18
2022-11-28T22:14:06.427Z,5.14
2022-11-28T22:16:34.337Z,5.22
2022-11-28T22:19:02.449Z,5.19
2022-11-28T22:24:19.789Z,5.17
2022-11-28T22:26:47.706Z,5.21
2022-11-28T22:29:15.694Z,5.15
2022-11-28T22:31:43.652Z,5.15
2022-11-28T22:34:11.925Z,5.07
2022-11-28T22:36:40.433Z,5.05
2022-11-28T22:39:08.293Z,5.04
2022-11-28T22:41:37.529Z,5.08
2022-11-28T22:44:05.674Z,5.16
2022-11-28T22:46:34.243Z,5.07
2022-11-28T22:49:02.846Z,5.03
2022-11-28T22:51:31.535Z,5.07
2022-11-28T22:54:01.275Z,5.09
2022-11-28T22:56:29.707Z,5.13
2022-11-28T22:58:59.319Z,5.16
2022-11-28T23:01:29.669Z,5.12
2022-11-28T23:03:58.008Z,5.06
2022-11-28T23:06:28.074Z,5.13
2022-11-28T23:08:56.838Z,5.08
2022-11-28T23:11:26.633Z,5.08
2022-11-28T23:13:55.040Z,5.10
2022-11-28T23:16:26.040Z,5.10
2022-11-28T23:18:55.737Z,5.06
2022-11-28T23:21:24.959Z,5.03
2022-11-28T23:23:53.151Z,5.08
2022-11-28T23:26:24.405Z,5.07
2022-11-28T23:28:52.753Z,5.05
2022-11-28T23:31:22.968Z,5.03
2022-11-28T23:33:53.544Z,5.09
2022-11-28T23:36:24.036Z,5.03
2022-11-28T23:38:53.853Z,5.02
2022-11-28T23:41:21.813Z,5.02
2022-11-28T23:43:50.174Z,5.05
2022-11-28T23:46:19.401Z,5.03
2022-11-28T23:48:48.659Z,5.07
2022-11-28T23:51:19.594Z,5.21
2022-11-28T23:53:47.567Z,5.10
2022-11-28T23:56:18.635Z,5.02
2022-11-28T23:58:46.855Z,5.07
